Terminal Aerodrome Forecast
Issued by NWS

Home | Current Version | Previous Version | Text Only | Print | Product List | Glossary On
Versions: 1 2 3 4 5 6 7 8 9 10 11 12 13
985
FTUS43 KOAX 122320
TAFSNY
TAF
KSNY 122320Z 1300/1324 29015G22KT P6SM SKC
     FM130900 33022G32KT P6SM SCT200=

USA.gov is the U.S. government's official web portal to all federal, state and local government web resources and services.